sensor_id;sensor_type;location;lat;lon;timestamp;P1;durP1;ratioP1;P2;durP2;ratioP2
22103;SDS011;11218;48.886;9.426;2023-05-18T00:00:36;52.10;;;13.45;;
22103;SDS011;11218;48.886;9.426;2023-05-18T00:03:04;50.70;;;12.90;;
22103;SDS011;11218;48.886;9.426;2023-05-18T00:05:33;44.92;;;12.02;;
22103;SDS011;11218;48.886;9.426;2023-05-18T00:08:02;48.20;;;12.23;;
22103;SDS011;11218;48.886;9.426;2023-05-18T00:10:30;41.75;;;11.25;;
22103;SDS011;11218;48.886;9.426;2023-05-18T00:12:58;42.72;;;11.02;;
22103;SDS011;11218;48.886;9.426;2023-05-18T00:15:26;47.75;;;12.35;;
22103;SDS011;11218;48.886;9.426;2023-05-18T00:17:56;34.65;;;10.05;;
22103;SDS011;11218;48.886;9.426;2023-05-18T00:20:24;44.38;;;11.57;;
22103;SDS011;11218;48.886;9.426;2023-05-18T00:22:52;44.25;;;10.95;;
22103;SDS011;11218;48.886;9.426;2023-05-18T00:25:20;29.42;;;8.18;;
22103;SDS011;11218;48.886;9.426;2023-05-18T00:27:49;40.50;;;10.27;;
22103;SDS011;11218;48.886;9.426;2023-05-18T00:30:18;45.13;;;10.73;;
22103;SDS011;11218;48.886;9.426;2023-05-18T00:32:47;41.40;;;10.43;;
22103;SDS011;11218;48.886;9.426;2023-05-18T00:35:16;39.50;;;10.75;;
22103;SDS011;11218;48.886;9.426;2023-05-18T00:37:45;41.45;;;10.90;;
22103;SDS011;11218;48.886;9.426;2023-05-18T00:40:13;41.25;;;10.98;;
22103;SDS011;11218;48.886;9.426;2023-05-18T00:42:41;60.08;;;14.40;;
22103;SDS011;11218;48.886;9.426;2023-05-18T00:45:09;31.63;;;9.30;;
22103;SDS011;11218;48.886;9.426;2023-05-18T00:47:38;58.38;;;13.98;;
22103;SDS011;11218;48.886;9.426;2023-05-18T00:50:06;49.60;;;12.63;;
22103;SDS011;11218;48.886;9.426;2023-05-18T00:52:36;49.40;;;11.93;;
22103;SDS011;11218;48.886;9.426;2023-05-18T00:55:05;43.22;;;10.60;;
22103;SDS011;11218;48.886;9.426;2023-05-18T00:57:34;47.00;;;11.57;;
22103;SDS011;11218;48.886;9.426;2023-05-18T01:00:04;42.28;;;10.90;;
22103;SDS011;11218;48.886;9.426;2023-05-18T01:02:36;32.95;;;9.07;;
22103;SDS011;11218;48.886;9.426;2023-05-18T01:05:08;42.33;;;10.60;;
22103;SDS011;11218;48.886;9.426;2023-05-18T01:07:39;48.33;;;11.57;;
22103;SDS011;11218;48.886;9.426;2023-05-18T01:10:09;38.67;;;10.07;;
22103;SDS011;11218;48.886;9.426;2023-05-18T01:12:39;40.25;;;10.30;;
22103;SDS011;11218;48.886;9.426;2023-05-18T01:15:13;43.08;;;10.90;;
22103;SDS011;11218;48.886;9.426;2023-05-18T01:17:47;47.33;;;11.82;;
22103;SDS011;11218;48.886;9.426;2023-05-18T01:20:28;38.65;;;10.38;;
22103;SDS011;11218;48.886;9.426;2023-05-18T01:26:14;44.28;;;11.48;;
22103;SDS011;11218;48.886;9.426;2023-05-18T01:28:44;44.22;;;11.38;;
22103;SDS011;11218;48.886;9.426;2023-05-18T01:31:13;43.25;;;11.23;;
22103;SDS011;11218;48.886;9.426;2023-05-18T01:33:42;43.08;;;10.77;;
22103;SDS011;11218;48.886;9.426;2023-05-18T01:36:11;45.33;;;11.20;;
22103;SDS011;11218;48.886;9.426;2023-05-18T01:38:39;44.70;;;11.23;;
22103;SDS011;11218;48.886;9.426;2023-05-18T01:41:24;46.95;;;11.75;;
22103;SDS011;11218;48.886;9.426;2023-05-18T01:43:55;42.20;;;10.95;;
22103;SDS011;11218;48.886;9.426;2023-05-18T01:46:33;40.60;;;10.63;;
22103;SDS011;11218;48.886;9.426;2023-05-18T01:49:09;52.47;;;12.63;;
22103;SDS011;11218;48.886;9.426;2023-05-18T01:51:43;46.55;;;11.65;;
22103;SDS011;11218;48.886;9.426;2023-05-18T01:54:14;39.22;;;10.32;;
22103;SDS011;11218;48.886;9.426;2023-05-18T01:56:46;49.58;;;12.43;;
22103;SDS011;11218;48.886;9.426;2023-05-18T01:59:15;45.85;;;11.50;;
22103;SDS011;11218;48.886;9.426;2023-05-18T02:01:44;60.20;;;14.35;;
22103;SDS011;11218;48.886;9.426;2023-05-18T02:04:12;39.30;;;10.07;;
22103;SDS011;11218;48.886;9.426;2023-05-18T02:06:41;43.35;;;10.23;;
22103;SDS011;11218;48.886;9.426;2023-05-18T02:09:09;32.50;;;8.98;;
22103;SDS011;11218;48.886;9.426;2023-05-18T02:11:38;40.70;;;10.45;;
22103;SDS011;11218;48.886;9.426;2023-05-18T02:14:08;44.22;;;11.13;;
22103;SDS011;11218;48.886;9.426;2023-05-18T02:16:36;46.95;;;11.50;;
22103;SDS011;11218;48.886;9.426;2023-05-18T02:19:04;40.78;;;9.50;;
22103;SDS011;11218;48.886;9.426;2023-05-18T02:21:33;38.63;;;9.88;;
22103;SDS011;11218;48.886;9.426;2023-05-18T02:24:01;44.75;;;11.15;;
22103;SDS011;11218;48.886;9.426;2023-05-18T02:26:29;30.02;;;8.80;;
22103;SDS011;11218;48.886;9.426;2023-05-18T02:28:57;38.92;;;10.63;;
22103;SDS011;11218;48.886;9.426;2023-05-18T02:31:26;48.00;;;11.15;;
22103;SDS011;11218;48.886;9.426;2023-05-18T02:33:56;35.70;;;9.68;;
22103;SDS011;11218;48.886;9.426;2023-05-18T02:36:24;40.95;;;10.25;;
22103;SDS011;11218;48.886;9.426;2023-05-18T02:38:53;47.05;;;11.90;;
22103;SDS011;11218;48.886;9.426;2023-05-18T02:41:22;48.40;;;11.45;;
22103;SDS011;11218;48.886;9.426;2023-05-18T02:43:51;42.30;;;10.13;;
22103;SDS011;11218;48.886;9.426;2023-05-18T02:46:19;43.65;;;11.05;;
22103;SDS011;11218;48.886;9.426;2023-05-18T02:48:48;43.92;;;11.13;;
22103;SDS011;11218;48.886;9.426;2023-05-18T02:51:17;38.05;;;9.90;;
22103;SDS011;11218;48.886;9.426;2023-05-18T02:53:45;49.20;;;11.82;;
22103;SDS011;11218;48.886;9.426;2023-05-18T02:56:13;30.63;;;8.50;;
22103;SDS011;11218;48.886;9.426;2023-05-18T02:58:43;48.42;;;11.45;;
22103;SDS011;11218;48.886;9.426;2023-05-18T03:01:11;43.08;;;11.10;;
22103;SDS011;11218;48.886;9.426;2023-05-18T03:03:39;35.20;;;9.57;;
22103;SDS011;11218;48.886;9.426;2023-05-18T03:06:10;27.67;;;8.02;;
22103;SDS011;11218;48.886;9.426;2023-05-18T03:08:39;40.45;;;10.48;;
22103;SDS011;11218;48.886;9.426;2023-05-18T03:11:08;39.38;;;10.48;;
22103;SDS011;11218;48.886;9.426;2023-05-18T03:13:36;38.03;;;9.98;;
22103;SDS011;11218;48.886;9.426;2023-05-18T03:16:04;40.45;;;11.30;;
22103;SDS011;11218;48.886;9.426;2023-05-18T03:18:32;42.67;;;10.32;;
22103;SDS011;11218;48.886;9.426;2023-05-18T03:21:00;42.95;;;10.35;;
22103;SDS011;11218;48.886;9.426;2023-05-18T03:23:30;32.30;;;8.55;;
22103;SDS011;11218;48.886;9.426;2023-05-18T03:25:58;36.15;;;9.60;;
22103;SDS011;11218;48.886;9.426;2023-05-18T03:28:28;36.38;;;9.77;;
22103;SDS011;11218;48.886;9.426;2023-05-18T03:30:56;36.25;;;9.73;;
22103;SDS011;11218;48.886;9.426;2023-05-18T03:33:24;54.03;;;11.77;;
22103;SDS011;11218;48.886;9.426;2023-05-18T03:35:53;51.75;;;12.50;;
22103;SDS011;11218;48.886;9.426;2023-05-18T03:38:21;30.05;;;8.13;;
22103;SDS011;11218;48.886;9.426;2023-05-18T03:40:51;61.47;;;12.88;;
22103;SDS011;11218;48.886;9.426;2023-05-18T03:43:20;44.20;;;10.68;;
22103;SDS011;11218;48.886;9.426;2023-05-18T03:45:51;55.47;;;12.98;;
22103;SDS011;11218;48.886;9.426;2023-05-18T03:48:19;50.38;;;12.05;;
22103;SDS011;11218;48.886;9.426;2023-05-18T03:50:47;63.00;;;14.60;;
22103;SDS011;11218;48.886;9.426;2023-05-18T03:53:16;51.10;;;12.80;;
22103;SDS011;11218;48.886;9.426;2023-05-18T03:55:44;63.83;;;14.45;;
22103;SDS011;11218;48.886;9.426;2023-05-18T03:58:16;58.95;;;12.95;;
22103;SDS011;11218;48.886;9.426;2023-05-18T04:00:45;53.65;;;12.60;;
22103;SDS011;11218;48.886;9.426;2023-05-18T04:03:15;52.95;;;12.85;;
22103;SDS011;11218;48.886;9.426;2023-05-18T04:05:43;42.25;;;9.90;;
22103;SDS011;11218;48.886;9.426;2023-05-18T04:08:11;36.20;;;9.70;;
22103;SDS011;11218;48.886;9.426;2023-05-18T04:10:40;46.33;;;11.25;;
22103;SDS011;11218;48.886;9.426;2023-05-18T04:13:10;35.58;;;9.13;;
22103;SDS011;11218;48.886;9.426;2023-05-18T04:15:40;48.40;;;11.63;;
22103;SDS011;11218;48.886;9.426;2023-05-18T04:18:08;48.08;;;11.52;;
22103;SDS011;11218;48.886;9.426;2023-05-18T04:20:39;42.95;;;11.48;;
22103;SDS011;11218;48.886;9.426;2023-05-18T04:23:07;55.53;;;12.77;;
22103;SDS011;11218;48.886;9.426;2023-05-18T04:25:36;45.60;;;11.70;;
22103;SDS011;11218;48.886;9.426;2023-05-18T04:28:07;52.30;;;12.23;;
22103;SDS011;11218;48.886;9.426;2023-05-18T04:30:35;49.17;;;11.85;;
22103;SDS011;11218;48.886;9.426;2023-05-18T04:33:05;47.60;;;11.90;;
22103;SDS011;11218;48.886;9.426;2023-05-18T04:35:34;43.53;;;10.50;;
22103;SDS011;11218;48.886;9.426;2023-05-18T04:38:02;48.28;;;11.52;;
22103;SDS011;11218;48.886;9.426;2023-05-18T04:40:30;53.97;;;11.98;;
22103;SDS011;11218;48.886;9.426;2023-05-18T04:42:59;30.65;;;8.52;;
22103;SDS011;11218;48.886;9.426;2023-05-18T04:45:28;40.53;;;10.18;;
22103;SDS011;11218;48.886;9.426;2023-05-18T04:47:57;61.65;;;14.30;;
22103;SDS011;11218;48.886;9.426;2023-05-18T04:50:28;44.90;;;10.70;;
22103;SDS011;11218;48.886;9.426;2023-05-18T04:52:57;51.85;;;12.15;;
22103;SDS011;11218;48.886;9.426;2023-05-18T04:55:27;55.28;;;11.68;;
22103;SDS011;11218;48.886;9.426;2023-05-18T04:57:56;48.05;;;11.00;;
22103;SDS011;11218;48.886;9.426;2023-05-18T05:00:26;52.45;;;11.30;;
22103;SDS011;11218;48.886;9.426;2023-05-18T05:02:55;57.88;;;13.20;;
22103;SDS011;11218;48.886;9.426;2023-05-18T05:05:25;53.45;;;11.48;;
22103;SDS011;11218;48.886;9.426;2023-05-18T05:07:55;53.22;;;12.02;;
22103;SDS011;11218;48.886;9.426;2023-05-18T05:10:24;47.08;;;10.68;;
22103;SDS011;11218;48.886;9.426;2023-05-18T05:12:53;63.22;;;13.13;;
22103;SDS011;11218;48.886;9.426;2023-05-18T05:15:21;52.42;;;11.20;;
22103;SDS011;11218;48.886;9.426;2023-05-18T05:17:49;49.15;;;11.40;;
22103;SDS011;11218;48.886;9.426;2023-05-18T05:20:17;44.55;;;11.25;;
22103;SDS011;11218;48.886;9.426;2023-05-18T05:22:45;51.97;;;11.98;;
22103;SDS011;11218;48.886;9.426;2023-05-18T05:25:15;41.65;;;10.38;;
22103;SDS011;11218;48.886;9.426;2023-05-18T05:27:43;47.08;;;11.00;;
22103;SDS011;11218;48.886;9.426;2023-05-18T05:30:11;51.53;;;11.70;;
22103;SDS011;11218;48.886;9.426;2023-05-18T05:32:40;53.55;;;11.18;;
22103;SDS011;11218;48.886;9.426;2023-05-18T05:35:08;56.63;;;12.13;;
22103;SDS011;11218;48.886;9.426;2023-05-18T05:37:37;58.47;;;12.05;;
22103;SDS011;11218;48.886;9.426;2023-05-18T05:40:05;55.95;;;11.38;;
22103;SDS011;11218;48.886;9.426;2023-05-18T05:42:36;65.90;;;13.95;;
22103;SDS011;11218;48.886;9.426;2023-05-18T05:45:05;58.75;;;13.32;;
22103;SDS011;11218;48.886;9.426;2023-05-18T05:47:34;60.35;;;12.80;;
22103;SDS011;11218;48.886;9.426;2023-05-18T05:50:02;56.47;;;12.40;;
22103;SDS011;11218;48.886;9.426;2023-05-18T05:52:31;49.38;;;12.02;;
22103;SDS011;11218;48.886;9.426;2023-05-18T05:54:59;61.22;;;14.15;;
22103;SDS011;11218;48.886;9.426;2023-05-18T05:57:27;60.47;;;13.00;;
22103;SDS011;11218;48.886;9.426;2023-05-18T05:59:57;52.85;;;12.13;;
22103;SDS011;11218;48.886;9.426;2023-05-18T06:02:25;48.72;;;11.02;;
22103;SDS011;11218;48.886;9.426;2023-05-18T06:04:54;60.08;;;12.52;;
22103;SDS011;11218;48.886;9.426;2023-05-18T06:07:22;64.28;;;13.70;;
22103;SDS011;11218;48.886;9.426;2023-05-18T06:09:50;56.28;;;11.27;;
22103;SDS011;11218;48.886;9.426;2023-05-18T06:12:18;55.38;;;12.43;;
22103;SDS011;11218;48.886;9.426;2023-05-18T06:14:46;52.78;;;12.20;;
22103;SDS011;11218;48.886;9.426;2023-05-18T06:17:16;47.28;;;11.10;;
22103;SDS011;11218;48.886;9.426;2023-05-18T06:19:44;53.47;;;12.27;;
22103;SDS011;11218;48.886;9.426;2023-05-18T06:22:12;57.70;;;12.43;;
22103;SDS011;11218;48.886;9.426;2023-05-18T06:24:40;54.20;;;12.30;;
22103;SDS011;11218;48.886;9.426;2023-05-18T06:27:08;34.03;;;8.82;;
22103;SDS011;11218;48.886;9.426;2023-05-18T06:29:36;51.55;;;11.55;;
22103;SDS011;11218;48.886;9.426;2023-05-18T06:32:05;48.50;;;11.48;;
22103;SDS011;11218;48.886;9.426;2023-05-18T06:34:34;50.15;;;10.90;;
22103;SDS011;11218;48.886;9.426;2023-05-18T06:37:03;44.00;;;10.57;;
22103;SDS011;11218;48.886;9.426;2023-05-18T06:39:31;47.78;;;11.77;;
22103;SDS011;11218;48.886;9.426;2023-05-18T06:41:59;51.38;;;11.73;;
22103;SDS011;11218;48.886;9.426;2023-05-18T06:44:28;58.30;;;12.80;;
22103;SDS011;11218;48.886;9.426;2023-05-18T06:46:56;56.70;;;12.35;;
22103;SDS011;11218;48.886;9.426;2023-05-18T06:49:24;49.33;;;11.23;;
22103;SDS011;11218;48.886;9.426;2023-05-18T06:51:54;58.85;;;12.65;;
22103;SDS011;11218;48.886;9.426;2023-05-18T06:54:22;39.78;;;9.20;;
22103;SDS011;11218;48.886;9.426;2023-05-18T06:56:50;60.50;;;12.80;;
22103;SDS011;11218;48.886;9.426;2023-05-18T06:59:19;37.55;;;8.63;;
22103;SDS011;11218;48.886;9.426;2023-05-18T07:01:47;49.97;;;11.32;;
22103;SDS011;11218;48.886;9.426;2023-05-18T07:04:16;41.45;;;9.57;;
22103;SDS011;11218;48.886;9.426;2023-05-18T07:06:44;40.70;;;9.15;;
22103;SDS011;11218;48.886;9.426;2023-05-18T07:09:14;44.92;;;10.13;;
22103;SDS011;11218;48.886;9.426;2023-05-18T07:11:42;41.85;;;9.55;;
22103;SDS011;11218;48.886;9.426;2023-05-18T07:14:11;56.72;;;11.65;;
22103;SDS011;11218;48.886;9.426;2023-05-18T07:16:39;61.83;;;12.90;;
22103;SDS011;11218;48.886;9.426;2023-05-18T07:19:09;49.45;;;10.85;;
22103;SDS011;11218;48.886;9.426;2023-05-18T07:21:37;482.85;;;163.60;;
22103;SDS011;11218;48.886;9.426;2023-05-18T07:24:05;466.15;;;161.27;;
22103;SDS011;11218;48.886;9.426;2023-05-18T07:26:35;471.90;;;166.80;;
22103;SDS011;11218;48.886;9.426;2023-05-18T07:29:03;474.00;;;166.18;;
22103;SDS011;11218;48.886;9.426;2023-05-18T07:31:31;462.70;;;161.75;;
22103;SDS011;11218;48.886;9.426;2023-05-18T07:33:59;459.63;;;163.43;;
22103;SDS011;11218;48.886;9.426;2023-05-18T07:36:27;468.63;;;161.07;;
22103;SDS011;11218;48.886;9.426;2023-05-18T07:38:56;454.42;;;158.38;;
22103;SDS011;11218;48.886;9.426;2023-05-18T07:41:25;450.98;;;159.95;;
22103;SDS011;11218;48.886;9.426;2023-05-18T07:43:56;464.35;;;163.80;;
22103;SDS011;11218;48.886;9.426;2023-05-18T07:46:24;445.92;;;154.98;;
22103;SDS011;11218;48.886;9.426;2023-05-18T07:48:53;455.65;;;160.05;;
22103;SDS011;11218;48.886;9.426;2023-05-18T07:51:21;447.73;;;157.23;;
22103;SDS011;11218;48.886;9.426;2023-05-18T07:53:52;461.63;;;163.30;;
22103;SDS011;11218;48.886;9.426;2023-05-18T07:56:20;445.27;;;158.90;;
22103;SDS011;11218;48.886;9.426;2023-05-18T07:58:49;450.13;;;161.75;;
22103;SDS011;11218;48.886;9.426;2023-05-18T08:01:19;463.42;;;164.65;;
22103;SDS011;11218;48.886;9.426;2023-05-18T08:03:52;450.50;;;160.23;;
22103;SDS011;11218;48.886;9.426;2023-05-18T08:06:21;459.50;;;163.63;;
22103;SDS011;11218;48.886;9.426;2023-05-18T08:08:54;465.90;;;167.80;;
22103;SDS011;11218;48.886;9.426;2023-05-18T08:11:23;458.45;;;164.23;;
22103;SDS011;11218;48.886;9.426;2023-05-18T08:13:52;474.52;;;171.35;;
22103;SDS011;11218;48.886;9.426;2023-05-18T08:16:24;480.48;;;170.48;;
22103;SDS011;11218;48.886;9.426;2023-05-18T08:18:53;464.48;;;166.68;;
22103;SDS011;11218;48.886;9.426;2023-05-18T08:21:21;459.50;;;168.85;;
22103;SDS011;11218;48.886;9.426;2023-05-18T08:23:49;469.30;;;175.95;;
22103;SDS011;11218;48.886;9.426;2023-05-18T08:26:22;483.60;;;177.88;;
22103;SDS011;11218;48.886;9.426;2023-05-18T08:28:52;489.25;;;179.10;;
22103;SDS011;11218;48.886;9.426;2023-05-18T08:31:20;472.58;;;173.48;;
22103;SDS011;11218;48.886;9.426;2023-05-18T08:33:50;475.05;;;180.52;;
22103;SDS011;11218;48.886;9.426;2023-05-18T08:36:18;485.70;;;192.68;;
22103;SDS011;11218;48.886;9.426;2023-05-18T08:38:46;471.95;;;176.40;;
22103;SDS011;11218;48.886;9.426;2023-05-18T08:41:18;428.67;;;167.98;;
22103;SDS011;11218;48.886;9.426;2023-05-18T08:43:50;481.08;;;176.93;;
22103;SDS011;11218;48.886;9.426;2023-05-18T08:46:20;374.95;;;151.85;;
22103;SDS011;11218;48.886;9.426;2023-05-18T08:48:55;328.30;;;142.70;;
22103;SDS011;11218;48.886;9.426;2023-05-18T08:51:27;194.65;;;107.05;;
22103;SDS011;11218;48.886;9.426;2023-05-18T08:53:57;267.52;;;129.05;;
22103;SDS011;11218;48.886;9.426;2023-05-18T08:56:27;139.18;;;86.18;;
22103;SDS011;11218;48.886;9.426;2023-05-18T08:58:58;296.00;;;136.40;;
22103;SDS011;11218;48.886;9.426;2023-05-18T09:01:33;231.13;;;119.07;;
22103;SDS011;11218;48.886;9.426;2023-05-18T09:04:03;197.48;;;108.75;;
22103;SDS011;11218;48.886;9.426;2023-05-18T09:06:32;121.50;;;71.63;;
22103;SDS011;11218;48.886;9.426;2023-05-18T09:09:01;120.70;;;79.22;;
22103;SDS011;11218;48.886;9.426;2023-05-18T09:11:32;147.43;;;88.35;;
22103;SDS011;11218;48.886;9.426;2023-05-18T09:14:01;312.50;;;144.05;;
22103;SDS011;11218;48.886;9.426;2023-05-18T09:16:29;120.65;;;82.20;;
22103;SDS011;11218;48.886;9.426;2023-05-18T09:19:01;151.30;;;88.75;;
22103;SDS011;11218;48.886;9.426;2023-05-18T09:21:31;79.05;;;45.70;;
22103;SDS011;11218;48.886;9.426;2023-05-18T09:23:59;75.57;;;33.25;;
22103;SDS011;11218;48.886;9.426;2023-05-18T09:26:29;63.40;;;29.02;;
22103;SDS011;11218;48.886;9.426;2023-05-18T09:28:58;131.25;;;79.53;;
22103;SDS011;11218;48.886;9.426;2023-05-18T09:31:29;165.20;;;100.75;;
22103;SDS011;11218;48.886;9.426;2023-05-18T09:33:57;93.60;;;51.53;;
22103;SDS011;11218;48.886;9.426;2023-05-18T09:36:26;86.15;;;49.80;;
22103;SDS011;11218;48.886;9.426;2023-05-18T09:38:57;80.15;;;44.35;;
22103;SDS011;11218;48.886;9.426;2023-05-18T09:41:25;54.67;;;17.42;;
22103;SDS011;11218;48.886;9.426;2023-05-18T09:43:56;54.85;;;16.63;;
22103;SDS011;11218;48.886;9.426;2023-05-18T09:46:30;67.80;;;21.63;;
22103;SDS011;11218;48.886;9.426;2023-05-18T09:49:02;69.13;;;22.50;;
22103;SDS011;11218;48.886;9.426;2023-05-18T09:51:33;67.53;;;29.50;;
22103;SDS011;11218;48.886;9.426;2023-05-18T09:54:06;103.15;;;53.28;;
22103;SDS011;11218;48.886;9.426;2023-05-18T09:56:36;110.53;;;73.00;;
22103;SDS011;11218;48.886;9.426;2023-05-18T09:59:08;151.15;;;97.75;;
22103;SDS011;11218;48.886;9.426;2023-05-18T10:01:53;119.55;;;75.22;;
22103;SDS011;11218;48.886;9.426;2023-05-18T10:04:25;74.03;;;44.00;;
22103;SDS011;11218;48.886;9.426;2023-05-18T10:07:07;91.25;;;45.53;;
22103;SDS011;11218;48.886;9.426;2023-05-18T10:09:37;65.55;;;20.20;;
22103;SDS011;11218;48.886;9.426;2023-05-18T10:12:09;51.13;;;15.68;;
22103;SDS011;11218;48.886;9.426;2023-05-18T10:14:39;56.30;;;17.05;;
22103;SDS011;11218;48.886;9.426;2023-05-18T10:17:09;52.67;;;17.98;;
22103;SDS011;11218;48.886;9.426;2023-05-18T10:19:43;60.88;;;19.23;;
22103;SDS011;11218;48.886;9.426;2023-05-18T10:22:16;61.67;;;23.48;;
22103;SDS011;11218;48.886;9.426;2023-05-18T10:24:52;47.45;;;21.63;;
22103;SDS011;11218;48.886;9.426;2023-05-18T10:27:22;67.97;;;38.28;;
22103;SDS011;11218;48.886;9.426;2023-05-18T10:29:55;88.60;;;57.25;;
22103;SDS011;11218;48.886;9.426;2023-05-18T10:32:34;97.60;;;74.32;;
22103;SDS011;11218;48.886;9.426;2023-05-18T10:35:03;100.10;;;59.97;;
22103;SDS011;11218;48.886;9.426;2023-05-18T10:37:48;80.60;;;45.33;;
22103;SDS011;11218;48.886;9.426;2023-05-18T10:41:05;77.32;;;48.00;;
22103;SDS011;11218;48.886;9.426;2023-05-18T10:43:34;68.07;;;40.35;;
22103;SDS011;11218;48.886;9.426;2023-05-18T10:46:04;65.43;;;40.83;;
22103;SDS011;11218;48.886;9.426;2023-05-18T10:48:36;48.33;;;20.90;;
22103;SDS011;11218;48.886;9.426;2023-05-18T10:51:06;52.35;;;22.52;;
22103;SDS011;11218;48.886;9.426;2023-05-18T10:53:35;55.95;;;31.73;;
22103;SDS011;11218;48.886;9.426;2023-05-18T10:56:06;66.95;;;35.47;;
22103;SDS011;11218;48.886;9.426;2023-05-18T10:58:35;58.63;;;35.38;;
22103;SDS011;11218;48.886;9.426;2023-05-18T11:01:06;71.28;;;38.88;;
22103;SDS011;11218;48.886;9.426;2023-05-18T11:03:37;48.13;;;26.50;;
22103;SDS011;11218;48.886;9.426;2023-05-18T11:06:07;58.15;;;29.45;;
22103;SDS011;11218;48.886;9.426;2023-05-18T11:08:43;41.83;;;28.40;;
22103;SDS011;11218;48.886;9.426;2023-05-18T11:11:15;74.57;;;33.63;;
22103;SDS011;11218;48.886;9.426;2023-05-18T11:13:46;61.03;;;20.23;;
22103;SDS011;11218;48.886;9.426;2023-05-18T11:16:18;55.95;;;19.10;;
22103;SDS011;11218;48.886;9.426;2023-05-18T11:18:47;54.70;;;20.08;;
22103;SDS011;11218;48.886;9.426;2023-05-18T11:21:17;56.40;;;23.77;;
22103;SDS011;11218;48.886;9.426;2023-05-18T11:24:14;45.17;;;22.13;;
22103;SDS011;11218;48.886;9.426;2023-05-18T11:26:48;46.55;;;26.58;;
22103;SDS011;11218;48.886;9.426;2023-05-18T11:29:19;49.47;;;21.30;;
22103;SDS011;11218;48.886;9.426;2023-05-18T11:31:50;58.45;;;19.65;;
22103;SDS011;11218;48.886;9.426;2023-05-18T11:34:33;34.38;;;14.10;;
22103;SDS011;11218;48.886;9.426;2023-05-18T11:37:05;57.85;;;17.70;;
22103;SDS011;11218;48.886;9.426;2023-05-18T11:39:36;48.03;;;17.25;;
22103;SDS011;11218;48.886;9.426;2023-05-18T11:42:18;54.85;;;21.63;;
22103;SDS011;11218;48.886;9.426;2023-05-18T11:44:53;63.25;;;30.52;;
22103;SDS011;11218;48.886;9.426;2023-05-18T11:47:22;76.57;;;40.97;;
22103;SDS011;11218;48.886;9.426;2023-05-18T11:49:57;90.15;;;51.10;;
22103;SDS011;11218;48.886;9.426;2023-05-18T11:52:26;84.80;;;57.47;;
22103;SDS011;11218;48.886;9.426;2023-05-18T11:54:54;94.88;;;62.13;;
22103;SDS011;11218;48.886;9.426;2023-05-18T11:57:26;88.60;;;58.42;;
22103;SDS011;11218;48.886;9.426;2023-05-18T12:00:05;100.47;;;61.58;;
22103;SDS011;11218;48.886;9.426;2023-05-18T12:02:36;81.68;;;48.67;;
22103;SDS011;11218;48.886;9.426;2023-05-18T12:05:06;113.80;;;64.82;;
22103;SDS011;11218;48.886;9.426;2023-05-18T12:07:35;92.68;;;62.05;;
22103;SDS011;11218;48.886;9.426;2023-05-18T12:10:06;98.78;;;60.58;;
22103;SDS011;11218;48.886;9.426;2023-05-18T12:12:37;66.38;;;44.85;;
22103;SDS011;11218;48.886;9.426;2023-05-18T12:15:06;67.88;;;47.35;;
22103;SDS011;11218;48.886;9.426;2023-05-18T12:17:39;130.25;;;61.17;;
22103;SDS011;11218;48.886;9.426;2023-05-18T12:20:10;54.58;;;12.00;;
22103;SDS011;11218;48.886;9.426;2023-05-18T12:22:43;45.15;;;10.95;;
22103;SDS011;11218;48.886;9.426;2023-05-18T12:25:15;44.17;;;10.05;;
22103;SDS011;11218;48.886;9.426;2023-05-18T12:27:45;36.40;;;8.98;;
22103;SDS011;11218;48.886;9.426;2023-05-18T12:30:15;43.70;;;9.98;;
22103;SDS011;11218;48.886;9.426;2023-05-18T12:32:45;44.10;;;10.13;;
22103;SDS011;11218;48.886;9.426;2023-05-18T12:35:14;35.50;;;8.68;;
22103;SDS011;11218;48.886;9.426;2023-05-18T12:37:43;40.92;;;9.07;;
22103;SDS011;11218;48.886;9.426;2023-05-18T12:40:13;46.55;;;10.10;;
22103;SDS011;11218;48.886;9.426;2023-05-18T12:42:51;42.70;;;9.65;;
22103;SDS011;11218;48.886;9.426;2023-05-18T12:45:20;31.50;;;7.82;;
22103;SDS011;11218;48.886;9.426;2023-05-18T12:47:50;39.10;;;9.18;;
22103;SDS011;11218;48.886;9.426;2023-05-18T12:50:21;34.72;;;7.88;;
22103;SDS011;11218;48.886;9.426;2023-05-18T12:52:50;31.77;;;7.78;;
22103;SDS011;11218;48.886;9.426;2023-05-18T12:55:18;36.88;;;8.75;;
22103;SDS011;11218;48.886;9.426;2023-05-18T12:57:58;36.58;;;8.88;;
22103;SDS011;11218;48.886;9.426;2023-05-18T13:00:30;32.72;;;7.82;;
22103;SDS011;11218;48.886;9.426;2023-05-18T13:03:05;29.30;;;7.55;;
22103;SDS011;11218;48.886;9.426;2023-05-18T13:05:40;34.10;;;8.20;;
22103;SDS011;11218;48.886;9.426;2023-05-18T13:08:12;34.65;;;7.60;;
22103;SDS011;11218;48.886;9.426;2023-05-18T13:10:42;28.77;;;6.40;;
22103;SDS011;11218;48.886;9.426;2023-05-18T13:13:13;48.95;;;10.05;;
22103;SDS011;11218;48.886;9.426;2023-05-18T13:15:42;23.25;;;5.68;;
22103;SDS011;11218;48.886;9.426;2023-05-18T13:18:11;40.78;;;8.75;;
22103;SDS011;11218;48.886;9.426;2023-05-18T13:20:41;22.88;;;5.90;;
22103;SDS011;11218;48.886;9.426;2023-05-18T13:23:11;39.67;;;7.95;;
22103;SDS011;11218;48.886;9.426;2023-05-18T13:25:41;35.33;;;7.40;;
22103;SDS011;11218;48.886;9.426;2023-05-18T13:28:12;40.92;;;8.30;;
22103;SDS011;11218;48.886;9.426;2023-05-18T13:30:42;40.67;;;8.27;;
22103;SDS011;11218;48.886;9.426;2023-05-18T13:33:11;40.53;;;8.43;;
22103;SDS011;11218;48.886;9.426;2023-05-18T13:36:24;38.67;;;8.15;;
22103;SDS011;11218;48.886;9.426;2023-05-18T13:39:42;39.20;;;8.18;;
22103;SDS011;11218;48.886;9.426;2023-05-18T13:42:12;49.80;;;10.52;;
22103;SDS011;11218;48.886;9.426;2023-05-18T13:44:41;27.58;;;5.50;;
22103;SDS011;11218;48.886;9.426;2023-05-18T13:47:09;37.20;;;7.90;;
22103;SDS011;11218;48.886;9.426;2023-05-18T13:49:37;37.67;;;8.60;;
22103;SDS011;11218;48.886;9.426;2023-05-18T13:52:05;54.67;;;10.90;;
22103;SDS011;11218;48.886;9.426;2023-05-18T13:54:34;33.63;;;7.07;;
22103;SDS011;11218;48.886;9.426;2023-05-18T13:57:03;31.27;;;7.07;;
22103;SDS011;11218;48.886;9.426;2023-05-18T13:59:33;34.45;;;7.90;;
22103;SDS011;11218;48.886;9.426;2023-05-18T14:02:02;35.25;;;7.60;;
22103;SDS011;11218;48.886;9.426;2023-05-18T14:04:31;39.13;;;7.85;;
22103;SDS011;11218;48.886;9.426;2023-05-18T14:06:59;28.35;;;6.38;;
22103;SDS011;11218;48.886;9.426;2023-05-18T14:09:27;35.33;;;7.88;;
22103;SDS011;11218;48.886;9.426;2023-05-18T14:11:55;27.17;;;6.32;;
22103;SDS011;11218;48.886;9.426;2023-05-18T14:14:25;35.63;;;7.60;;
22103;SDS011;11218;48.886;9.426;2023-05-18T14:16:53;34.05;;;7.68;;
22103;SDS011;11218;48.886;9.426;2023-05-18T14:19:23;46.22;;;9.77;;
22103;SDS011;11218;48.886;9.426;2023-05-18T14:21:51;31.35;;;7.78;;
22103;SDS011;11218;48.886;9.426;2023-05-18T14:24:19;38.55;;;8.18;;
22103;SDS011;11218;48.886;9.426;2023-05-18T14:26:47;45.63;;;9.23;;
22103;SDS011;11218;48.886;9.426;2023-05-18T14:29:16;41.88;;;8.82;;
22103;SDS011;11218;48.886;9.426;2023-05-18T14:31:44;44.30;;;9.00;;
22103;SDS011;11218;48.886;9.426;2023-05-18T14:34:12;33.42;;;7.20;;
22103;SDS011;11218;48.886;9.426;2023-05-18T14:36:42;39.55;;;8.45;;
22103;SDS011;11218;48.886;9.426;2023-05-18T14:39:10;31.52;;;7.10;;
22103;SDS011;11218;48.886;9.426;2023-05-18T14:41:38;33.92;;;7.57;;